Delburne, Canada
Current Conditions -  °F | °C
As of 3:00 PM on Sunday 23 Nov 2014 (Local Time) from CYQF Reporting Station
Overcast Overcast  
Wind Chill: -8°   Ceiling: 17000
Heat Index: -3°   Visibility: 15mi
Dew Point: -6°   Wind: 8mph
Humidity: 80%   Direction: 150°SSE
Pressure: 29.66"   Gusts: NA
Location:  52.2°N, 113.23°W
Report Text: CYQF 232200Z 15007KT 15SM FEW050 OVC170 M03/M06 A2966 RMK CU1AC7 SLP093
Loading
Personal Weather Stations






























Interactive Weather Map New forecast layout! Learn more

10-Day Weather Forecast

Advertisements
Track Severe Weather on mobile